METAR AND TAF INFORMATION
METAR FOR PASY
ADDS - METARS form results

(2310 UTC 22 May 2018)
Data provider http://aviationweather.gov/adds/metars/
 
METAR text: PASY 222259Z AUTO 16013KT 7SM -RA SCT009 SCT020 SCT027 BKN047 05/03 A2906 RMK AO2 LTG DSNT S RAB59 SLP844 $
Conditions at: PASY (EARECKSON/SHEMYA, AK, US) observed 2259 UTC 22 May 2018
Temperature: 5.0°C (41°F)
Dewpoint: 3.0°C (37°F) [RH = 87%]
Pressure (altimeter): 29.06 inches Hg (984.2 mb)
[Sea-level pressure: 984.4 mb]
Winds: from the SSE (160 degrees) at 15 MPH (13 knots; 6.8 m/s)
Visibility: 7 miles (11 km)
Ceiling: 4700 feet AGL
Clouds: scattered clouds at 900 feet AGL
scattered clouds at 2000 feet AGL
scattered clouds at 2700 feet AGL
broken clouds at 4700 feet AGL
Weather: -RA  (light rain)
SOME DATA ABOVE MAY BE INACCURATE!!!
"$" is an indication the sensor requires maintenance

METAR text: PASY 222258Z AUTO 15014KT 7SM SCT009 SCT027 SCT047 05/03 A2907 RMK AO2 LTG DSNT S SLP848 T00520034 $
Conditions at: PASY (EARECKSON/SHEMYA, AK, US) observed 2258 UTC 22 May 2018
Temperature: 5.2°C (41°F)
Dewpoint: 3.4°C (38°F) [RH = 88%]
Pressure (altimeter): 29.07 inches Hg (984.5 mb)
[Sea-level pressure: 984.8 mb]
Winds: from the SSE (150 degrees) at 16 MPH (14 knots; 7.3 m/s)
Visibility: 7 miles (11 km)
Ceiling: at least 12,000 feet AGL
Clouds: scattered clouds at 900 feet AGL
scattered clouds at 2700 feet AGL
scattered clouds at 4700 feet AGL
Weather:
SOME DATA ABOVE MAY BE INACCURATE!!!
"$" is an indication the sensor requires maintenance

METAR text: PASY 222238Z AUTO 15015KT 7SM FEW013 SCT019 05/03 A2907 RMK AO2 SLP848
Conditions at: PASY (EARECKSON/SHEMYA, AK, US) observed 2238 UTC 22 May 2018
Temperature: 5.0°C (41°F)
Dewpoint: 3.0°C (37°F) [RH = 87%]
Pressure (altimeter): 29.07 inches Hg (984.5 mb)
[Sea-level pressure: 984.8 mb]
Winds: from the SSE (150 degrees) at 17 MPH (15 knots; 7.8 m/s)
Visibility: 7 miles (11 km)
Ceiling: at least 12,000 feet AGL
Clouds: few clouds at 1300 feet AGL
scattered clouds at 1900 feet AGL
Weather: automated observation with no human augmentation;
there may or may not be significant weather present at this time

METAR text: PASY 222228Z AUTO 14014KT 7SM SCT012 BKN018 05/03 A2907 RMK AO2 CIG 013V019 SLP848 $
Conditions at: PASY (EARECKSON/SHEMYA, AK, US) observed 2228 UTC 22 May 2018
Temperature: 5.0°C (41°F)
Dewpoint: 3.0°C (37°F) [RH = 87%]
Pressure (altimeter): 29.07 inches Hg (984.5 mb)
[Sea-level pressure: 984.8 mb]
Winds: from the SE (140 degrees) at 16 MPH (14 knots; 7.3 m/s)
Visibility: 7 miles (11 km)
Ceiling: 1800 feet AGL
Clouds: scattered clouds at 1200 feet AGL
broken clouds at 1800 feet AGL
Weather:
SOME DATA ABOVE MAY BE INACCURATE!!!
"$" is an indication the sensor requires maintenance

Forecast for: PASY (EARECKSON/SHEMYA, AK, US)
Text: TAF PASY 222200Z 2222/2404 16015KT 4800 -RA BR BKN020 OVC030 620208 QNH2901INS
Forecast period: 2200 UTC 22 May 2018 to 0300 UTC 23 May 2018
Forecast type: FROM: standard forecast or significant change
Winds: from the SSE (160 degrees) at 17 MPH (15 knots; 7.8 m/s)
Visibility: 2.98 miles (4.80 km)
Ceiling: 2000 feet AGL
Clouds: broken clouds at 2000 feet AGL
overcast cloud deck at 3000 feet AGL
Icing: Light icing in cloud expected at 2000 feet (609m) AGL extending to 10000 feet (3048m) AGL
Weather: -RA BR  (light rain, mist)
Forecast for: PASY (EARECKSON/SHEMYA, AK, US)
Text: TAF PASY 222200Z 2222/2404 16015KT 4800 -RA BR BKN020 OVC030 620208 QNH2901INS
Forecast period: 2200 UTC 22 May 2018 to 0300 UTC 23 May 2018
Forecast type: FROM: standard forecast or significant change
Winds: from the SSE (160 degrees) at 17 MPH (15 knots; 7.8 m/s)
Visibility: 2.98 miles (4.80 km)
Ceiling: 2000 feet AGL
Clouds: broken clouds at 2000 feet AGL
overcast cloud deck at 3000 feet AGL
Icing: Light icing in cloud expected at 2000 feet (609m) AGL extending to 10000 feet (3048m) AGL
Weather: -RA BR  (light rain, mist)
Forecast for: PASY (EARECKSON/SHEMYA, AK, US)
Text: TAF PASY 222200Z 2222/2404 16015KT 4800 -RA BR BKN020 OVC030 620208 QNH2901INS
Forecast period: 2200 UTC 22 May 2018 to 0400 UTC 23 May 2018
Forecast type: TEMPORARY: The following changes expected for less than half the time period
Winds: from the SSW (201 degrees) at 68 MPH (59 knots; 30.7 m/s)
Ceiling: 1500 feet AGL
Clouds: broken clouds at 1500 feet AGL
Weather: no significant weather forecast for this period
Forecast for: PASY (EARECKSON/SHEMYA, AK, US)
Text: TAF PASY 222200Z 2222/2404 16015KT 4800 -RA BR BKN020 OVC030 620208 QNH2901INS
Forecast period: 2200 UTC 22 May 2018 to 0400 UTC 23 May 2018
Forecast type: TEMPORARY: The following changes expected for less than half the time period
Winds: from the SSW (201 degrees) at 68 MPH (59 knots; 30.7 m/s)
Ceiling: 1500 feet AGL
Clouds: broken clouds at 1500 feet AGL
Weather: no significant weather forecast for this period
Forecast for: PASY (EARECKSON/SHEMYA, AK, US)
Text: TAF PASY 222200Z 2222/2404 16015KT 4800 -RA BR BKN020 OVC030 620208 QNH2901INS
Forecast period: 0300 UTC 23 May 2018 to 0400 UTC 24 May 2018
Forecast type: BECOMING: Conditions expected to become as follows by 0400 UTC 23 May 2018
Winds: from the W (280 degrees) at 17 MPH (15 knots; 7.8 m/s)
gusting to 23 MPH (20 knots; 10.4 m/s)
Visibility: 2.98 miles (4.80 km)
Ceiling: 1500 feet AGL
Clouds: overcast cloud deck at 1500 feet AGL
Icing: Light icing in cloud expected at 2000 feet (609m) AGL extending to 10000 feet (3048m) AGL
Weather: -RA BR  (light rain, mist)
Forecast for: PASY (EARECKSON/SHEMYA, AK, US)
Text: TAF PASY 222200Z 2222/2404 16015KT 4800 -RA BR BKN020 OVC030 620208 QNH2901INS
Forecast period: 0300 UTC 23 May 2018 to 0400 UTC 24 May 2018
Forecast type: BECOMING: Conditions expected to become as follows by 0400 UTC 23 May 2018
Winds: from the W (280 degrees) at 17 MPH (15 knots; 7.8 m/s)
gusting to 23 MPH (20 knots; 10.4 m/s)
Visibility: 2.98 miles (4.80 km)
Ceiling: 1500 feet AGL
Clouds: overcast cloud deck at 1500 feet AGL
Icing: Light icing in cloud expected at 2000 feet (609m) AGL extending to 10000 feet (3048m) AGL
Weather: -RA BR  (light rain, mist)

 AIRPORT MAP

 RUNWAY INFORMATION
Runway 10 Runway length 10000 ft Runway width 150 ft
Runway elevation 98 ft Runway displaced threshold 0 ft Runway heading 107
Runway 28 Runway length 10000 ft Runway width 150 ft
Runway elevation 87 ft Runway displaced threshold 0 ft Runway heading 287

 AIRPORT FREQUENCIES
Type ASOS Name ASOS Frequency 135.65 MHZ
Type CNTR Name ANCHORAGE Frequency 119.1 MHZ
Type CTAF Name CTAF Frequency 127.2 MHZ

 AIRPORT NEAR NAVIGATION AIDS
Type VORTAC Name Shemya Frequency 109000 KHZ
Type NDB Name Shemya Frequency 403 KHZ



Powered by Virtual Airlines Manager [v2.6.2]